• Join FlightAware (Why Join?)
  • Login
  • US Flag 
 
06:05PM EST


 

Airport Tracker/Info


-or-


 

Live Flight TrackerFlight Track Log ✈ EJA871 ✈ 14-Oct-2013 ✈ KSAF - KVNY

Flight Track Log - Related Links

Times and Time Zones

All times are in EDT time to prevent confusion due to time zone crossing. See the EJA871 flight status page for this flight to view local times or setup timezone preferences in your user account.

Time Position Orientation Groundspeed Altitude Reporting Facility
EDT Latitude Longitude Course Direction KTS MPH feet Rate Location/Type
02:13PM 35.5906 -106.1067 270° West 191 220 7,600  Level Albuquerque Center
02:14PM 35.5378 -106.1594 219° Southwest 212 244 11,300 3,000 Climbing Albuquerque Center
02:15PM 35.5319 -106.2381 265° West 228 262 13,800 2,040 Climbing Albuquerque Center
02:16PM 35.5317 -106.3200 270° West 259 298 15,600 1,800 Climbing Albuquerque Center
02:17PM 35.5306 -106.4200 269° West 289 333 17,600 2,040 Climbing Albuquerque Center
02:18PM 35.5625 -106.9353 270° West  Level Estimated
02:18PM 35.5278 -106.5433 268° West 296 341 19,800  Level Albuquerque Center
02:19PM 35.5267 -106.6453 269° West 299 344 21,800 1,800 Climbing Albuquerque Center
02:20PM 35.5253 -106.7494 269° West 305 351 23,600 1,620 Climbing Albuquerque Center
02:21PM 35.5233 -106.8636 269° West 313 360 25,200 1,500 Climbing Albuquerque Center
02:22PM 35.5219 -106.9744 269° West 323 372 26,700 1,500 Climbing Albuquerque Center
02:23PM 35.5208 -107.0950 269° West 328 377 28,300 1,560 Climbing Albuquerque Center
02:24PM 35.5081 -107.2133 262° West 337 388 29,900 1,440 Climbing Albuquerque Center
02:25PM 35.4764 -107.3147 249° West 333 383 31,300 1,380 Climbing Albuquerque Center
02:26PM 35.4436 -107.4169 249° West 335 386 32,800 1,260 Climbing Albuquerque Center
02:27PM 35.4072 -107.5361 249° West 334 384 34,000 540 Climbing Albuquerque Center
02:28PM 35.3753 -107.6406 249° West 338 389 34,000  Level Albuquerque Center
02:29PM 35.3389 -107.7642 250° West 343 395 34,000 180 Level Albuquerque Center
02:30PM 35.3056 -107.8733 250° West 350 403 34,400 1,020 Climbing Albuquerque Center
02:31PM 35.2750 -107.9925 253° West 337 388 36,200 1,320 Climbing Albuquerque Center
02:32PM 35.2511 -108.0900 253° West 321 369 37,200 840 Climbing Albuquerque Center
02:33PM 35.2292 -108.1858 254° West 311 358 38,000 360 Climbing Albuquerque Center
02:34PM 35.2217 -108.3083 266° West 323 372 38,000  Level Albuquerque Center
02:35PM 35.2186 -108.4200 268° West 337 388 38,000  Level Albuquerque Center
02:36PM 35.2161 -108.5481 269° West 338 389 38,000  Level Albuquerque Center
02:37PM 35.2136 -108.6592 268° West 338 389 38,000  Level Albuquerque Center
02:38PM 35.2106 -108.7894 268° West 341 392 38,000  Level Albuquerque Center
02:39PM 35.2078 -108.9011 268° West 342 394 38,000  Level Albuquerque Center
02:40PM 35.2047 -109.0133 268° West 343 395 38,000  Level Albuquerque Center
02:41PM 35.2022 -109.1431 269° West 342 394 38,000  Level Albuquerque Center
02:42PM 35.1986 -109.2556 268° West 343 395 38,000  Level Albuquerque Center
02:43PM 35.1947 -109.3861 268° West 344 396 38,000  Level Albuquerque Center
02:44PM 35.1911 -109.4981 268° West 344 396 38,000  Level Albuquerque Center
02:45PM 35.1886 -109.6111 268° West 346 398 38,000  Level Albuquerque Center
02:47PM 35.1842 -109.7414 268° West 344 396 38,000  Level Albuquerque Center
02:48PM 35.1808 -109.8564 268° West 350 403 38,000  Level Albuquerque Center
02:49PM 35.1772 -109.9875 268° West 347 399 38,000  Level Albuquerque Center
02:50PM 35.1731 -110.1003 267° West 347 399 38,000  Level Albuquerque Center
02:51PM 35.1681 -110.2306 267° West 346 398 38,000  Level Albuquerque Center
02:52PM 35.1622 -110.3428 266° West 344 396 38,000  Level Albuquerque Center
02:53PM 35.1569 -110.4758 267° West 348 400 38,000  Level Albuquerque Center
02:54PM 35.1533 -110.5894 268° West 350 403 38,000  Level Albuquerque Center
02:55PM 35.1472 -110.7025 266° West 349 402 38,000  Level Albuquerque Center
02:56PM 35.1419 -110.8358 267° West 351 404 38,000  Level Albuquerque Center
02:57PM 35.1381 -110.9506 268° West 352 405 38,000  Level Albuquerque Center
02:58PM 35.1328 -111.0867 267° West 355 409 38,000  Level Albuquerque Center
02:59PM 35.1297 -111.2094 268° West 360 414 38,000  Level Albuquerque Center
03:00PM 35.1236 -111.3297 266° West 357 411 38,000  Level Albuquerque Center
03:01PM 35.1181 -111.4517 267° West 360 414 38,000  Level Albuquerque Center
03:02PM 35.1133 -111.5736 267° West 361 415 38,000  Level Albuquerque Center
03:03PM 35.1083 -111.6939 267° West 359 413 38,000  Level Albuquerque Center
03:04PM 35.1014 -111.8258 266° West 362 417 38,000  Level Albuquerque Center
03:05PM 35.0964 -111.9489 267° West 365 420 38,000  Level Albuquerque Center
03:06PM 35.0883 -112.0972 266° West 366 421 38,000  Level Albuquerque Center
03:07PM 35.0825 -112.2225 267° West 370 426 38,000  Level Albuquerque Center
03:08PM 35.0761 -112.3478 266° West 370 426 38,000  Level Albuquerque Center
03:09PM 35.0697 -112.4739 266° West 372 428 38,000  Level Albuquerque Center
03:10PM 35.0633 -112.5997 266° West 372 428 38,000  Level Albuquerque Center
03:11PM 35.0567 -112.7264 266° West 373 429 38,000  Level Albuquerque Center
03:12PM 35.0489 -112.8539 266° West 375 432 38,000  Level Albuquerque Center
03:13PM 35.0408 -113.0075 266° West 376 433 38,000  Level Albuquerque Center
03:14PM 35.0328 -113.1342 266° West 374 430 38,000  Level Albuquerque Center
03:15PM 35.0258 -113.2622 266° West 376 433 38,000  Level Albuquerque Center
03:16PM 35.0178 -113.3889 266° West 376 433 38,000  Level Albuquerque Center
03:17PM 35.0097 -113.5172 266° West 379 436 38,000  Level Albuquerque Center
03:18PM 35.0022 -113.6442 266° West 378 435 38,000  Level Albuquerque Center
03:20PM 34.9933 -113.7969 266° West 380 437 38,000  Level Los Angeles Center
03:21PM 34.9853 -113.9247 266° West 381 438 38,000 -300 Level Los Angeles Center
03:22PM 34.9753 -114.0606 265° West 377 434 37,400 -720 Descending Los Angeles Center
03:23PM 34.9678 -114.1836 266° West 368 423 36,600 -780 Descending Los Angeles Center
03:24PM 34.9583 -114.3317 266° West 365 420 35,800 -780 Descending Los Angeles Center
03:25PM 34.9497 -114.4581 265° West 372 428 35,100 -720 Descending Los Angeles Center
03:26PM 34.9411 -114.5897 265° West 385 443 34,400 -540 Descending Los Angeles Center
03:27PM 34.9319 -114.7222 265° West 391 450 34,000 -240 Descending Los Angeles Center
03:28PM 34.9225 -114.8572 265° West 398 458 34,000  Level Los Angeles Center
03:29PM 34.9133 -114.9903 265° West 395 455 34,000  Level Los Angeles Center
03:30PM 34.9017 -115.1528 265° West 400 460 34,000 -300 Level Los Angeles Center
03:31PM 34.8908 -115.2864 264° West 397 457 33,500 -900 Descending Los Angeles Center
03:32PM 34.8811 -115.4189 265° West 393 452 32,200 -1,260 Descending Los Angeles Center
03:33PM 34.8714 -115.5508 265° West 392 451 31,000 -1,200 Descending Los Angeles Center
03:34PM 34.8614 -115.6872 265° West 398 458 29,800 -1,200 Descending Los Angeles Center
03:35PM 34.8503 -115.8250 264° West 406 467 28,600 -1,200 Descending Los Angeles Center
03:36PM 34.8392 -115.9667 265° West 416 479 27,400 -1,320 Descending Los Angeles Center
03:37PM 34.8228 -116.1392 263° West 423 487 25,900 -1,320 Descending Los Angeles Center
03:38PM 34.8122 -116.2764 265° West 416 479 24,700 -1,080 Descending Los Angeles Center
03:39PM 34.8019 -116.4042 264° West 391 450 23,700 -1,020 Descending Los Angeles Center
03:40PM 34.7911 -116.5275 264° West 372 428 22,700 -840 Descending Los Angeles Center
03:41PM 34.7792 -116.6536 263° West 375 432 22,000 -360 Descending Los Angeles Center
03:42PM 34.7653 -116.7836 263° West 385 443 22,000  Level Los Angeles Center
03:43PM 34.7500 -116.9469 264° West 401 461 22,000 -720 Level Los Angeles Center
03:45PM 34.7350 -117.0811 262° West 401 461 20,600 -1,680 Descending Los Angeles Center
03:46PM 34.7214 -117.2114 263° West 391 450 18,600 -1,860 Descending Los Angeles Center
03:47PM 34.7086 -117.3411 263° West 386 444 16,800 -1,800 Descending Los Angeles Center
03:48PM 34.6956 -117.4703 263° West 385 443 14,900 -1,380 Descending Los Angeles Center
03:49PM 34.6819 -117.5950 262° West 372 428 14,000 -540 Descending Los Angeles Center
03:50PM 34.6669 -117.7231 262° West 379 436 13,800 -720 Descending Los Angeles Center
03:52PM 34.6333 -117.9310 270° West  Level FlightAware Approximate
03:54PM 34.5833 -118.2333 165° South 308 354 10,500  Level Southern California TRACON
03:55PM 34.5667 -118.3167 256° West 282 325 8,200 -1,920 Descending Southern California TRACON
03:56PM 34.5500 -118.4000 256° West 266 306 6,900 -660 Descending Southern California TRACON
03:57PM 34.5333 -118.4833 256° West 265 305 6,900 -300 Level Southern California TRACON
03:58PM 34.4667 -118.5167 202° Southwest 259 298 6,300 -960 Descending Southern California TRACON
03:59PM 34.3991 -118.5441 165° South  Level FlightAware Approximate
03:59PM 34.3833 -118.5167 180° South 255 293 4,900  Level Southern California TRACON
04:00PM 34.3333 -118.5000 165° South 219 252 3,900 -1,200 Descending Southern California TRACON
04:01PM 34.2833 -118.5000 180° South 167 192 2,600 -1,200 Descending Southern California TRACON
04:02PM 34.2333 -118.5000 180° South 154 177 1,500 -1,140 Descending Southern California TRACON
04:04PM 34.2098 -118.4900 180° South  Level Estimated
04:11PM 34.2098 -118.4900 180° South  Level Estimated